.
WxDataArchive / Data Records for 2009-05-21
2009-05-20 May 2009 2009-05-22

Data Records for Thursday, 21 May 2009

Time	Temp	Chill	HIndex	Humid	Dewpt	 Wind 	HiWind	WindDir	Rain 	Barom 
-----	----	-----	------	-----	-----	------	------	-------	-----	----- 
00:00	58.7	58.7	58.7	50	40.1	0	0	---	0.00	30.151 
00:05	58.9	58.9	58.9	50	40.3	0	0	---	0.00	30.151 
00:10	59.0	59.0	59.0	49	39.9	0	0	---	0.00	30.151 
00:15	59.2	59.2	59.2	48	39.5	0	0	---	0.00	30.150 
00:20	59.2	59.2	59.2	47	39.0	0	0	---	0.00	30.150 
00:25	59.2	59.2	59.2	47	39.0	0	0	---	0.00	30.150 
00:30	59.0	59.0	59.0	48	39.3	0	0	---	0.00	30.153 
00:35	59.0	59.0	59.0	48	39.3	0	0	---	0.00	30.153 
00:40	58.9	58.9	58.9	48	39.2	0	0	---	0.00	30.153 
00:45	58.7	58.7	58.7	49	39.6	0	0	---	0.00	30.152 
00:50	58.6	58.6	58.6	49	39.5	0	0	---	0.00	30.152 
00:55	58.7	58.7	58.7	49	39.6	0	0	---	0.00	30.152 
01:00	58.7	58.7	58.7	50	40.1	0	0	---	0.00	30.150 
01:05	58.7	58.7	58.7	50	40.1	0	0	---	0.00	30.150 
01:10	58.9	58.9	58.9	50	40.3	0	0	---	0.00	30.150 
01:15	59.0	59.0	59.0	50	40.4	0	2	90	0.00	30.148 
01:20	59.5	59.5	59.5	50	40.8	0	2	---	0.00	30.148 
01:25	59.8	59.8	59.8	50	41.1	0	0	---	0.00	30.148 
01:30	60.1	60.1	60.1	49	40.9	0	1	90	0.00	30.147 
01:35	60.1	60.1	60.1	49	40.9	0	0	---	0.00	30.147 
01:40	60.2	60.2	60.2	48	40.4	0	1	90	0.00	30.147 
01:45	60.4	60.4	60.4	48	40.6	0	0	---	0.00	30.147 
01:50	60.5	60.5	60.5	48	40.7	0	1	90	0.00	30.147 
01:55	60.7	60.7	60.7	49	41.4	0	1	90	0.00	30.147 
02:00	60.7	60.7	60.7	48	40.9	0	1	90	0.00	30.146 
02:05	60.7	60.7	60.7	48	40.9	0	1	90	0.00	30.146 
02:10	60.7	60.7	60.7	50	41.9	0	0	---	0.00	30.146 
02:15	60.5	60.5	60.5	49	41.2	0	0	---	0.00	30.143 
02:20	60.5	60.5	60.5	50	41.8	0	1	90	0.00	30.143 
02:25	60.4	60.4	60.4	49	41.1	0	0	---	0.00	30.143 
02:30	60.1	60.1	60.1	50	41.4	0	1	90	0.00	30.146 
02:35	59.9	59.9	59.9	50	41.2	0	0	---	0.00	30.146 
02:40	59.8	59.8	59.8	50	41.1	0	0	---	0.00	30.146 
02:45	59.6	59.6	59.6	51	41.4	0	0	---	0.00	30.148 
02:50	59.5	59.5	59.5	51	41.4	0	0	---	0.00	30.148 
02:55	59.0	59.0	59.0	52	41.4	0	0	---	0.00	30.148 
03:00	58.7	58.7	58.7	53	41.6	0	0	---	0.00	30.150 
03:05	58.1	58.1	58.1	54	41.5	0	0	---	0.00	30.150 
03:10	57.6	57.6	57.6	55	41.6	0	0	---	0.00	30.150 
03:15	57.2	57.2	57.2	57	42.1	0	0	---	0.00	30.149 
03:20	56.7	56.7	56.7	58	42.1	0	0	---	0.00	30.149 
03:25	56.5	56.5	56.5	59	42.3	0	0	---	0.00	30.149 
03:30	56.2	56.2	56.2	59	42.1	0	0	---	0.00	30.152 
03:35	56.2	56.2	56.2	59	42.1	0	0	---	0.00	30.152 
03:40	56.2	56.2	56.2	59	42.1	0	0	---	0.00	30.152 
03:45	56.0	56.0	56.0	60	42.3	0	0	---	0.00	30.150 
03:50	56.0	56.0	56.0	60	42.3	0	0	---	0.00	30.150 
03:55	56.0	56.0	56.0	62	43.2	0	0	---	0.00	30.150 
04:00	55.9	55.9	55.9	61	42.6	0	0	---	0.00	30.149 
04:05	55.7	55.7	55.7	62	42.9	0	0	---	0.00	30.149 
04:10	55.6	55.6	55.6	61	42.4	0	0	---	0.00	30.149 
04:15	55.4	55.4	55.4	62	42.6	0	0	---	0.00	30.147 
04:20	55.4	55.4	55.4	62	42.6	0	0	---	0.00	30.147 
04:25	55.4	55.4	55.4	62	42.6	0	1	90	0.00	30.147 
04:30	55.4	55.4	55.4	62	42.6	0	0	---	0.00	30.154 
04:35	55.4	55.4	55.4	63	43.0	0	0	---	0.00	30.154 
04:40	55.1	55.1	55.1	64	43.1	0	0	---	0.00	30.154 
04:45	54.8	54.8	54.8	64	42.9	0	0	---	0.00	30.156 
04:50	54.5	54.5	54.5	64	42.6	0	0	---	0.00	30.156 
04:55	54.2	54.2	54.2	66	43.1	0	0	---	0.00	30.156 
05:00	53.9	53.9	53.9	66	42.8	0	0	---	0.00	30.162 
05:05	53.8	53.8	53.8	67	43.1	0	0	---	0.00	30.162 
05:10	53.6	53.6	53.6	67	42.9	0	0	---	0.00	30.162 
05:15	53.5	53.5	53.5	68	43.2	0	0	---	0.00	30.166 
05:20	53.2	53.2	53.2	69	43.3	0	0	---	0.00	30.166 
05:25	53.1	53.1	53.1	71	43.9	0	0	---	0.00	30.166 
05:30	52.8	52.8	52.8	71	43.7	0	0	---	0.00	30.166 
05:35	52.8	52.8	52.8	71	43.7	0	0	---	0.00	30.166 
05:40	52.5	52.5	52.5	71	43.4	0	0	---	0.00	30.166 
05:45	52.3	52.3	52.3	72	43.5	0	0	---	0.00	30.169 
05:50	52.0	52.0	52.0	73	43.6	0	0	---	0.00	30.169 
05:55	51.9	51.9	51.9	74	43.9	0	0	---	0.00	30.169 
06:00	51.6	51.6	51.6	75	43.9	0	0	---	0.00	30.170 
06:05	51.4	51.4	51.4	76	44.1	0	0	---	0.00	30.170 
06:10	51.3	51.3	51.3	77	44.3	0	0	---	0.00	30.170 
06:15	51.0	51.0	51.0	77	44.0	0	0	---	0.00	30.178 
06:20	50.8	50.8	50.8	77	43.9	0	0	---	0.00	30.178 
06:25	50.7	50.7	50.7	78	44.1	0	0	---	0.00	30.178 
06:30	50.5	50.5	50.5	78	43.9	0	0	---	0.00	30.182 
06:35	50.5	50.5	50.5	79	44.2	0	0	---	0.00	30.182 
06:40	50.5	50.5	50.5	80	44.6	0	0	---	0.00	30.182 
06:45	50.5	50.5	50.5	80	44.6	0	0	---	0.00	30.188 
06:50	50.5	50.5	50.5	81	44.9	0	0	---	0.00	30.188 
06:55	50.7	50.7	50.7	81	45.1	0	0	---	0.00	30.188 
07:00	51.0	51.0	51.0	81	45.4	0	0	---	0.00	30.198 
07:05	51.3	51.3	51.3	81	45.7	0	0	---	0.00	30.198 
07:10	51.9	51.9	51.9	80	45.9	0	0	---	0.00	30.198 
07:15	52.8	52.8	52.8	77	45.8	0	0	---	0.00	30.201 
07:20	53.8	53.8	53.8	75	46.1	0	0	---	0.00	30.201 
07:25	55.0	55.0	55.0	72	46.1	0	0	---	0.00	30.201 
07:30	56.3	56.3	56.3	70	46.6	0	1	90	0.00	30.200 
07:35	57.5	57.5	57.5	68	47.0	0	2	90	0.00	30.200 
07:40	58.7	58.7	58.7	65	47.0	0	2	158	0.00	30.200 
07:45	59.9	59.9	59.9	62	46.8	1	3	292	0.00	30.197 
07:50	60.9	60.9	60.9	60	46.9	1	2	292	0.00	30.197 
07:55	61.6	61.6	61.6	59	47.1	1	3	270	0.00	30.197 
08:00	62.4	62.4	62.4	57	47.0	1	2	270	0.00	30.197 
08:05	63.2	63.2	63.2	56	47.2	1	3	248	0.00	30.197 
08:10	64.0	64.0	64.0	55	47.5	0	2	248	0.00	30.197 
08:15	64.7	64.7	64.7	54	47.7	0	2	248	0.00	30.206 
08:20	65.5	65.5	65.5	53	47.9	0	2	248	0.00	30.206 
08:25	66.1	66.1	66.1	51	47.4	0	2	248	0.00	30.206 
08:30	66.9	66.9	66.9	50	47.6	0	3	248	0.00	30.209 
08:35	67.4	67.4	67.4	49	47.6	1	3	248	0.00	30.209 
08:40	67.9	67.9	67.9	48	47.5	1	3	270	0.00	30.209 
08:45	68.3	68.3	68.3	46	46.7	2	6	248	0.00	30.210 
08:50	68.6	68.6	68.6	46	47.0	2	4	248	0.00	30.210 
08:55	68.8	68.8	68.8	47	47.7	2	4	248	0.00	30.210 
09:00	69.3	69.3	69.3	45	47.0	1	3	248	0.00	30.209 
09:05	69.8	69.8	69.8	45	47.5	1	2	248	0.00	30.209 
09:10	70.4	70.4	70.4	45	48.0	1	5	248	0.00	30.209 
09:15	70.6	70.6	70.6	45	48.2	1	3	248	0.00	30.212 
09:20	70.8	70.8	70.8	45	48.4	1	3	270	0.00	30.212 
09:25	70.9	70.9	70.9	44	47.9	1	5	270	0.00	30.212 
09:30	71.3	71.3	71.3	45	48.8	2	4	270	0.00	30.211 
09:35	71.6	71.6	71.6	45	49.1	1	4	248	0.00	30.211 
09:40	72.1	72.1	72.1	43	48.4	2	4	248	0.00	30.211 
09:45	72.5	72.5	72.5	43	48.7	2	4	270	0.00	30.209 
09:50	73.0	73.0	73.0	46	51.0	1	4	270	0.00	30.209 
09:55	73.3	73.3	73.3	43	49.4	1	5	270	0.00	30.209 
10:00	73.7	73.7	73.7	40	47.9	2	4	248	0.00	30.208 
10:05	73.9	73.9	73.9	41	48.7	2	4	270	0.00	30.208 
10:10	74.0	74.0	74.0	40	48.1	2	5	270	0.00	30.208 
10:15	74.0	74.0	74.0	43	50.1	2	4	292	0.00	30.210 
10:20	74.4	74.4	74.4	42	49.8	3	5	248	0.00	30.210 
10:25	74.6	74.6	74.6	41	49.3	2	5	248	0.00	30.210 
10:30	74.9	74.9	74.9	43	50.9	2	5	248	0.00	30.204 
10:35	75.1	75.1	77.5	40	49.1	3	6	270	0.00	30.204 
10:40	75.3	75.3	77.6	41	50.0	2	4	248	0.00	30.204 
10:45	75.4	75.4	77.6	39	48.7	3	6	270	0.00	30.197 
10:50	75.8	75.8	77.8	42	51.1	2	4	248	0.00	30.197 
10:55	76.0	76.0	77.9	41	50.6	3	5	292	0.00	30.197 
11:00	76.3	76.3	77.9	40	50.2	2	5	270	0.00	30.194 
11:05	76.5	76.5	78.0	40	50.4	3	5	270	0.00	30.194 
11:10	76.7	76.7	78.1	40	50.5	3	8	270	0.00	30.194 
11:15	76.8	76.8	78.1	39	49.9	3	6	248	0.00	30.189 
11:20	76.8	76.8	78.2	41	51.3	4	7	270	0.00	30.189 
11:25	77.0	77.0	78.2	39	50.1	3	6	292	0.00	30.189 
11:30	77.2	77.2	78.3	40	51.0	3	7	270	0.00	30.192 
11:35	77.6	77.6	78.5	40	51.3	3	6	248	0.00	30.192 
11:40	77.6	77.6	78.5	40	51.3	3	7	270	0.00	30.192 
11:45	77.7	77.7	78.6	40	51.4	3	6	248	0.00	30.184 
11:50	77.6	77.6	78.5	40	51.3	3	11	270	0.00	30.184 
11:55	77.9	77.9	78.7	40	51.6	3	6	270	0.00	30.184 
12:00	77.9	77.9	78.6	39	50.9	3	6	270	0.00	30.183 
12:05	78.3	78.3	78.9	41	52.6	2	4	270	0.00	30.183 
12:10	78.5	78.5	79.1	41	52.8	2	6	270	0.00	30.183 
12:15	78.6	78.6	79.0	39	51.5	3	7	270	0.00	30.179 
12:20	78.5	78.5	78.9	39	51.5	3	6	270	0.00	30.179 
12:25	78.1	78.1	78.7	39	51.1	3	6	270	0.00	30.179 
12:30	78.5	78.5	78.9	39	51.5	3	5	248	0.00	30.178 
12:35	78.6	78.6	79.0	39	51.5	3	6	248	0.00	30.178 
12:40	79.2	79.2	79.5	41	53.4	2	3	270	0.00	30.178 
12:45	79.2	79.2	79.3	39	52.1	2	5	270	0.00	30.173 
12:50	79.6	79.6	79.7	40	53.1	2	5	248	0.00	30.173 
12:55	79.6	79.6	79.4	37	51.0	2	7	292	0.00	30.173 
13:00	80.1	80.1	80.3	43	55.6	2	4	270	0.00	30.167 
13:05	80.1	80.1	79.8	37	51.5	2	5	270	0.00	30.167 
13:10	80.1	80.1	79.9	39	52.9	2	5	225	0.00	30.167 
13:15	80.5	80.5	79.9	36	51.1	2	6	248	0.00	30.163 
13:20	80.5	80.5	80.0	37	51.8	2	7	270	0.00	30.163 
13:25	80.7	80.7	80.3	39	53.4	2	5	248	0.00	30.163 
13:30	80.7	80.7	80.1	36	51.2	3	6	248	0.00	30.160 
13:35	80.7	80.7	80.2	38	52.7	2	4	270	0.00	30.160 
13:40	81.1	81.1	80.9	42	55.8	1	2	270	0.00	30.160 
13:45	81.6	81.6	81.1	40	54.9	2	5	270	0.00	30.150 
13:50	81.4	81.4	80.4	34	50.3	2	6	90	0.00	30.150 
13:55	81.4	81.4	80.8	38	53.3	2	6	270	0.00	30.150 
14:00	81.2	81.2	80.2	33	49.3	3	9	270	0.00	30.146 
14:05	81.2	81.2	80.3	34	50.1	3	7	248	0.00	30.146 
14:10	81.6	81.6	80.6	35	51.3	1	4	248	0.00	30.146 
14:15	82.2	82.2	81.4	38	54.0	1	3	248	0.00	30.146 
14:20	82.2	82.2	80.8	32	49.4	2	5	270	0.00	30.146 
14:25	82.0	82.0	80.9	35	51.6	2	6	248	0.00	30.146 
14:30	82.0	82.0	80.7	33	50.0	2	5	248	0.00	30.146 
14:35	82.0	82.0	80.9	35	51.6	2	6	248	0.00	30.146 
14:40	82.0	82.0	81.3	39	54.6	2	5	292	0.00	30.146 
14:45	82.2	82.2	80.9	33	50.2	2	5	248	0.00	30.144 
14:50	82.6	82.6	81.5	36	52.9	1	4	248	0.00	30.144 
14:55	82.8	82.8	81.4	34	51.5	2	6	248	0.00	30.144 
15:00	83.0	83.0	81.5	33	50.9	2	5	248	0.00	30.139 
15:05	82.8	82.8	81.6	35	52.3	3	6	270	0.00	30.139 
15:10	83.0	83.0	81.4	32	50.1	2	4	248	0.00	30.139 
15:15	83.2	83.2	81.6	32	50.2	2	5	225	0.00	30.139 
15:20	83.0	83.0	81.6	34	51.7	2	6	270	0.00	30.139 
15:25	83.2	83.2	81.7	33	51.1	2	9	248	0.00	30.139 
15:30	83.6	83.6	81.8	31	49.7	1	4	292	0.00	30.140 
15:35	83.8	83.8	82.3	34	52.4	2	4	248	0.00	30.140 
15:40	83.4	83.4	81.7	32	50.4	2	9	270	0.00	30.140 
15:45	83.6	83.6	82.2	35	53.0	2	6	270	0.00	30.131 
15:50	83.6	83.6	82.0	33	51.4	2	5	270	0.00	30.131 
15:55	83.6	83.6	82.0	33	51.4	2	4	248	0.00	30.131 
16:00	83.4	83.4	81.7	32	50.4	2	7	270	0.00	30.133 
16:05	83.4	83.4	81.7	32	50.4	2	6	248	0.00	30.133 
16:10	83.4	83.4	81.8	33	51.2	3	7	270	0.00	30.133 
16:15	83.6	83.6	82.1	34	52.2	2	4	248	0.00	30.133 
16:20	83.6	83.6	82.0	33	51.4	2	7	248	0.00	30.133 
16:25	83.8	83.8	82.1	32	50.8	1	4	270	0.00	30.133 
16:30	83.6	83.6	81.7	30	48.9	2	5	248	0.00	30.125 
16:35	83.8	83.8	82.1	32	50.8	2	5	248	0.00	30.125 
16:40	83.8	83.8	82.3	34	52.4	2	6	270	0.00	30.125 
16:45	84.0	84.0	82.3	33	51.8	1	3	248	0.00	30.118 
16:50	84.1	84.1	82.5	34	52.7	1	2	248	0.00	30.118 
16:55	84.1	84.1	82.4	33	51.9	1	4	248	0.00	30.118 
17:00	84.3	84.3	82.5	32	51.2	1	4	270	0.00	30.116 
17:05	84.1	84.1	82.4	33	51.9	2	5	270	0.00	30.116 
17:10	84.3	84.3	82.5	32	51.2	1	3	248	0.00	30.116 
17:15	84.7	84.7	83.1	34	53.2	1	4	270	0.00	30.116 
17:20	84.5	84.5	82.6	32	51.4	1	3	248	0.00	30.116 
17:25	84.3	84.3	82.4	31	50.3	2	6	270	0.00	30.116 
17:30	84.5	84.5	83.0	35	53.8	1	3	270	0.00	30.115 
17:35	84.9	84.9	83.4	35	54.2	0	3	270	0.00	30.115 
17:40	84.9	84.9	82.9	31	50.9	1	5	248	0.00	30.115 
17:45	84.7	84.7	82.7	31	50.7	1	3	248	0.00	30.113 
17:50	84.5	84.5	82.5	31	50.5	1	6	248	0.00	30.113 
17:55	84.3	84.3	82.6	33	52.0	2	6	248	0.00	30.113 
18:00	84.1	84.1	82.2	31	50.2	1	4	270	0.00	30.115 
18:05	84.1	84.1	82.4	33	51.9	2	3	270	0.00	30.115 
18:10	83.8	83.8	82.1	32	50.8	2	4	292	0.00	30.115 
18:15	83.2	83.2	81.8	34	51.9	2	6	270	0.00	30.114 
18:20	82.8	82.8	81.3	33	50.7	2	4	270	0.00	30.114 
18:25	82.6	82.6	81.4	35	52.1	0	2	270	0.00	30.114 
18:30	82.8	82.8	81.6	35	52.3	1	3	270	0.00	30.108 
18:35	82.8	82.8	81.7	36	53.1	1	2	270	0.00	30.108 
18:40	82.8	82.8	81.6	35	52.3	2	4	248	0.00	30.108 
18:45	82.8	82.8	81.4	34	51.5	1	3	248	0.00	30.108 
18:50	82.6	82.6	81.2	33	50.6	1	3	248	0.00	30.108 
18:55	82.2	82.2	81.1	35	51.8	1	3	248	0.00	30.108 
19:00	82.0	82.0	80.9	35	51.6	2	4	248	0.00	30.111 
19:05	81.8	81.8	80.8	35	51.4	1	2	270	0.00	30.111 
19:10	81.8	81.8	80.8	35	51.4	0	2	270	0.00	30.111 
19:15	81.8	81.8	80.9	36	52.2	1	4	248	0.00	30.102 
19:20	81.6	81.6	80.7	36	52.0	1	4	270	0.00	30.102 
19:25	81.4	81.4	80.6	36	51.9	1	3	248	0.00	30.102 
19:30	81.4	81.4	80.6	36	51.9	1	2	248	0.00	30.109 
19:35	81.2	81.2	80.3	35	50.9	1	3	270	0.00	30.109 
19:40	81.1	81.1	80.4	36	51.6	1	3	248	0.00	30.109 
19:45	80.9	80.9	80.3	37	52.2	0	0	---	0.00	30.110 
19:50	80.7	80.7	80.3	39	53.4	0	1	248	0.00	30.110 
19:55	80.5	80.5	80.1	38	52.5	0	1	248	0.00	30.110 
20:00	80.3	80.3	80.1	39	53.1	0	2	248	0.00	30.110 
20:05	80.3	80.3	80.1	39	53.1	0	2	292	0.00	30.110 
20:10	79.9	79.9	79.9	40	53.4	0	1	292	0.00	30.110 
20:15	79.8	79.8	79.8	40	53.3	0	1	292	0.00	30.107 
20:20	79.4	79.4	79.5	40	52.9	0	2	292	0.00	30.107 
20:25	79.2	79.2	79.5	41	53.4	0	1	292	0.00	30.107 
20:30	78.8	78.8	79.3	42	53.7	0	0	---	0.00	30.107 
20:35	78.6	78.6	79.2	43	54.2	0	0	---	0.00	30.107 
20:40	78.3	78.3	79.1	43	53.9	0	0	---	0.00	30.107 
20:45	77.9	77.9	78.8	43	53.6	0	0	---	0.00	30.108 
20:50	77.4	77.4	78.6	44	53.8	0	0	---	0.00	30.108 
20:55	76.8	76.8	78.3	44	53.2	0	0	---	0.00	30.108 
21:00	76.5	76.5	78.2	46	54.2	0	0	---	0.00	30.108 
21:05	76.0	76.0	78.0	47	54.3	0	0	---	0.00	30.108 
21:10	75.3	75.3	77.7	49	54.8	0	0	---	0.00	30.108 
21:15	74.4	74.4	74.4	50	54.5	0	0	---	0.00	30.106 
21:20	73.9	73.9	73.9	50	54.1	0	0	---	0.00	30.106 
21:25	73.2	73.2	73.2	52	54.5	0	0	---	0.00	30.106 
21:30	72.5	72.5	72.5	54	54.9	0	0	---	0.00	30.110 
21:35	72.0	72.0	72.0	55	54.9	0	0	---	0.00	30.110 
21:40	71.5	71.5	71.5	56	55.0	0	0	---	0.00	30.110 
21:45	70.9	70.9	70.9	57	54.9	0	0	---	0.00	30.116 
21:50	70.4	70.4	70.4	58	54.9	0	0	---	0.00	30.116 
21:55	69.9	69.9	69.9	59	54.9	0	0	---	0.00	30.116 
22:00	69.6	69.6	69.6	61	55.5	0	0	---	0.00	30.121 
22:05	69.3	69.3	69.3	61	55.3	0	0	---	0.00	30.121 
22:10	68.9	68.9	68.9	62	55.3	0	0	---	0.00	30.121 
22:15	68.6	68.6	68.6	63	55.5	0	0	---	0.00	30.127 
22:20	68.3	68.3	68.3	64	55.6	0	0	---	0.00	30.127 
22:25	67.9	67.9	67.9	64	55.3	0	0	---	0.00	30.127 
22:30	67.8	67.8	67.8	65	55.6	0	0	---	0.00	30.133 
22:35	67.4	67.4	67.4	65	55.2	0	0	---	0.00	30.133 
22:40	67.3	67.3	67.3	66	55.5	0	0	---	0.00	30.133 
22:45	67.1	67.1	67.1	66	55.4	0	0	---	0.00	30.133 
22:50	66.9	66.9	66.9	67	55.6	0	0	---	0.00	30.133 
22:55	66.8	66.8	66.8	68	55.9	0	0	---	0.00	30.133 
23:00	66.4	66.4	66.4	68	55.5	0	0	---	0.00	30.133 
23:05	66.1	66.1	66.1	69	55.6	0	0	---	0.00	30.133 
23:10	65.8	65.8	65.8	70	55.7	0	0	---	0.00	30.133 
23:15	65.6	65.6	65.6	70	55.5	0	0	---	0.00	30.133 
23:20	65.5	65.5	65.5	71	55.8	0	0	---	0.00	30.133 
23:25	65.3	65.3	65.3	71	55.6	0	0	---	0.00	30.133 
23:30	65.2	65.2	65.2	72	55.9	0	0	---	0.00	30.130 
23:35	65.0	65.0	65.0	72	55.7	0	0	---	0.00	30.130 
23:40	64.8	64.8	64.8	72	55.6	0	0	---	0.00	30.130 
23:45	65.0	65.0	65.0	71	55.4	0	0	---	0.00	30.130 
23:50	65.0	65.0	65.0	70	55.0	0	0	---	0.00	30.130 
23:55	65.2	65.2	65.2	70	55.2	0	0	---	0.00	30.130 

CoCoRaHS
IN-AL-39
A2 Web Hosting
Creative Commons License
GoDaddy
search engine by freefind advanced

loaded 2018-11-20 03:52:01 • last modified 2010-11-18 10:43:29
Privacy PolicyDisclaimer
• wx.awcolley.com is powered by PmWiki v.2002016 •
• all content (unless otherwise noted) © 2018 A W Colley